createdAt,value
2023-06-17T00:04:08.038Z,6.20
2023-06-17T00:09:16.867Z,6.47
2023-06-17T00:14:25.758Z,5.88
2023-06-17T00:19:30.874Z,6.82
2023-06-17T00:24:39.790Z,6.40
2023-06-17T00:29:48.520Z,6.07
2023-06-17T00:34:54.047Z,6.47
2023-06-17T00:40:07.163Z,6.03
2023-06-17T00:45:15.941Z,5.00
2023-06-17T00:50:29.940Z,5.60
2023-06-17T00:55:34.174Z,4.80
2023-06-17T01:00:42.951Z,4.75
2023-06-17T01:05:50.366Z,4.38
2023-06-17T01:11:07.298Z,5.13
2023-06-17T01:16:11.334Z,5.20
2023-06-17T01:21:17.032Z,5.28
2023-06-17T01:26:29.460Z,5.18
2023-06-17T01:31:33.776Z,4.78
2023-06-17T01:36:39.198Z,5.45
2023-06-17T01:41:54.486Z,5.28
2023-06-17T01:46:58.362Z,4.60
2023-06-17T01:52:10.706Z,4.70
2023-06-17T01:57:15.995Z,4.85
2023-06-17T02:02:24.826Z,4.50
2023-06-17T02:07:28.647Z,4.72
2023-06-17T02:12:38.765Z,4.20
2023-06-17T02:17:47.453Z,5.37
2023-06-17T02:22:56.317Z,4.40
2023-06-17T02:28:06.481Z,4.05
2023-06-17T02:33:13.134Z,5.20
2023-06-17T02:38:25.640Z,4.60
2023-06-17T02:43:36.977Z,4.75
2023-06-17T02:48:45.816Z,4.73
2023-06-17T02:53:55.605Z,4.93
2023-06-17T02:59:09.494Z,4.40
2023-06-17T03:04:21.505Z,4.93
2023-06-17T03:09:30.338Z,4.47
2023-06-17T03:14:40.856Z,4.80
2023-06-17T03:19:54.162Z,4.93
2023-06-17T03:25:04.004Z,4.50
2023-06-17T03:30:15.805Z,4.90
2023-06-17T03:35:24.959Z,4.60
2023-06-17T03:40:28.819Z,4.90
2023-06-17T03:45:36.749Z,4.63
2023-06-17T03:50:46.145Z,4.40
2023-06-17T03:55:55.065Z,4.55
2023-06-17T04:01:07.506Z,4.72
2023-06-17T04:06:17.747Z,4.22
2023-06-17T04:11:22.002Z,4.70
2023-06-17T04:16:36.570Z,4.65
2023-06-17T04:21:45.665Z,4.30
2023-06-17T04:26:55.292Z,4.00
2023-06-17T04:32:03.859Z,4.60
2023-06-17T04:37:15.630Z,4.53
2023-06-17T04:42:19.552Z,9.45
2023-06-17T04:47:30.330Z,5.40
2023-06-17T04:52:39.430Z,4.38
2023-06-17T04:57:49.049Z,4.32
2023-06-17T05:03:04.849Z,4.35
2023-06-17T05:08:13.829Z,4.70
2023-06-17T05:13:23.493Z,4.95
2023-06-17T05:18:30.846Z,4.35
2023-06-17T05:23:35.211Z,4.45
2023-06-17T05:28:39.323Z,4.13
2023-06-17T05:33:44.770Z,4.30
2023-06-17T05:38:48.649Z,4.38
2023-06-17T05:43:57.454Z,4.80
2023-06-17T05:49:07.888Z,4.35
2023-06-17T05:54:17.256Z,4.47
2023-06-17T05:59:28.179Z,4.97
2023-06-17T06:04:38.408Z,4.75
2023-06-17T06:09:42.268Z,4.32
2023-06-17T06:14:52.629Z,4.00
2023-06-17T06:19:58.249Z,4.03
2023-06-17T06:25:02.017Z,4.50
2023-06-17T06:30:07.477Z,4.10
2023-06-17T06:35:22.785Z,3.97
2023-06-17T06:40:28.078Z,3.75
2023-06-17T06:45:32.025Z,4.57
2023-06-17T06:55:47.482Z,4.20
2023-06-17T07:00:51.393Z,4.47
2023-06-17T07:05:56.655Z,3.83
2023-06-17T07:11:01.648Z,3.70
2023-06-17T07:16:11.053Z,4.35
2023-06-17T07:21:21.738Z,3.60
2023-06-17T07:31:39.969Z,3.80
2023-06-17T07:36:53.701Z,3.22
2023-06-17T07:42:02.414Z,3.70
2023-06-17T07:47:11.154Z,3.55
2023-06-17T07:52:21.223Z,3.50
2023-06-17T07:57:25.029Z,3.53
2023-06-17T08:02:33.839Z,3.05
2023-06-17T08:07:44.067Z,3.30
2023-06-17T08:18:01.379Z,3.35
2023-06-17T08:23:11.569Z,3.10
2023-06-17T08:33:30.302Z,3.15
2023-06-17T08:38:35.376Z,3.33
2023-06-17T08:43:46.055Z,3.28
2023-06-17T08:48:56.035Z,3.90
2023-06-17T08:54:09.420Z,3.13
2023-06-17T08:59:18.274Z,3.22
2023-06-17T09:04:23.473Z,2.90
2023-06-17T09:09:28.598Z,2.90
2023-06-17T09:14:37.530Z,2.65
2023-06-17T09:19:42.380Z,2.70
2023-06-17T09:24:59.953Z,3.00
2023-06-17T09:30:11.458Z,3.10
2023-06-17T09:35:20.824Z,3.08
2023-06-17T09:40:29.985Z,3.10
2023-06-17T09:45:39.650Z,3.25
2023-06-17T09:56:00.263Z,2.85
2023-06-17T10:01:09.516Z,2.50
2023-06-17T10:06:20.661Z,2.80
2023-06-17T10:11:31.797Z,2.63
2023-06-17T10:16:37.891Z,3.40
2023-06-17T10:21:44.413Z,2.50
2023-06-17T10:26:53.568Z,2.72
2023-06-17T10:32:19.279Z,2.72
2023-06-17T10:37:29.228Z,2.63
2023-06-17T10:42:39.342Z,2.92
2023-06-17T10:47:43.180Z,3.03
2023-06-17T10:53:01.875Z,2.80
2023-06-17T10:58:12.297Z,3.00
2023-06-17T11:03:21.403Z,2.90
2023-06-17T11:08:25.302Z,2.90
2023-06-17T11:13:35.420Z,2.70
2023-06-17T11:18:46.055Z,2.60
2023-06-17T11:23:55.238Z,2.42
2023-06-17T11:29:06.340Z,2.42
2023-06-17T11:34:15.297Z,2.47
2023-06-17T11:39:24.579Z,2.53
2023-06-17T11:44:30.314Z,2.40
2023-06-17T11:49:34.163Z,2.55
2023-06-17T11:54:45.508Z,2.00
2023-06-17T12:00:04.784Z,2.42
2023-06-17T12:05:15.284Z,2.15
2023-06-17T12:10:19.315Z,2.17
2023-06-17T12:20:49.716Z,1.92
2023-06-17T12:25:53.705Z,2.20
2023-06-17T12:31:04.124Z,1.85
2023-06-17T12:36:12.921Z,1.65
2023-06-17T12:41:21.869Z,2.07
2023-06-17T12:46:36.634Z,1.85
2023-06-17T12:51:45.713Z,1.75
2023-06-17T12:56:54.484Z,1.80
2023-06-17T13:02:05.108Z,1.90
2023-06-17T13:07:13.961Z,1.63
2023-06-17T13:12:22.651Z,1.70
2023-06-17T13:17:32.946Z,1.63
2023-06-17T13:22:37.376Z,1.60
2023-06-17T13:27:41.153Z,1.70
2023-06-17T13:32:51.316Z,1.65
2023-06-17T13:38:00.249Z,1.73
2023-06-17T13:43:04.912Z,1.30
2023-06-17T13:48:10.439Z,1.60
2023-06-17T13:53:19.258Z,1.60
2023-06-17T13:58:28.226Z,1.65
2023-06-17T14:03:38.490Z,1.80
2023-06-17T14:08:47.523Z,1.77
2023-06-17T14:13:56.296Z,1.60
2023-06-17T14:19:06.350Z,1.65
2023-06-17T14:24:15.460Z,1.55
2023-06-17T14:29:25.346Z,1.67
2023-06-17T14:34:35.594Z,1.73
2023-06-17T14:39:39.263Z,1.48
2023-06-17T14:44:48.639Z,1.63
2023-06-17T14:49:58.740Z,1.88
2023-06-17T14:55:02.437Z,1.85
2023-06-17T15:00:12.508Z,1.77
2023-06-17T15:05:18.712Z,1.65
2023-06-17T15:10:27.406Z,1.50
2023-06-17T15:15:36.511Z,1.63
2023-06-17T15:20:46.973Z,1.50
2023-06-17T15:25:50.720Z,1.30
2023-06-17T15:30:59.419Z,1.50
2023-06-17T15:41:18.134Z,1.25
2023-06-17T15:46:27.395Z,1.60
2023-06-17T15:51:37.891Z,1.50
2023-06-17T15:56:41.869Z,1.63
2023-06-17T16:01:50.716Z,1.50
2023-06-17T16:06:55.863Z,1.65
2023-06-17T16:12:00.209Z,1.40
2023-06-17T16:17:10.174Z,1.30
2023-06-17T16:22:15.319Z,1.52
2023-06-17T16:27:24.098Z,1.63
2023-06-17T16:32:32.856Z,1.60
2023-06-17T16:37:42.918Z,1.60
2023-06-17T16:42:51.769Z,1.85
2023-06-17T16:48:00.677Z,1.85
2023-06-17T16:53:05.894Z,2.65
2023-06-17T16:58:09.642Z,2.15
2023-06-17T17:03:18.589Z,2.70
2023-06-17T17:08:28.706Z,2.30
2023-06-17T17:13:47.064Z,2.15
2023-06-17T17:18:56.420Z,2.28
2023-06-17T17:24:07.166Z,2.05
2023-06-17T17:29:11.505Z,2.42
2023-06-17T17:34:20.323Z,2.20
2023-06-17T17:39:25.409Z,2.30
2023-06-17T17:44:34.251Z,2.30
2023-06-17T17:49:38.275Z,2.75
2023-06-17T17:54:57.116Z,2.40
2023-06-17T18:00:11.088Z,2.67
2023-06-17T18:05:24.243Z,2.13
2023-06-17T18:10:34.408Z,2.40
2023-06-17T18:15:43.225Z,2.70
2023-06-17T18:20:52.034Z,2.60
2023-06-17T18:26:02.232Z,2.60
2023-06-17T18:31:10.950Z,2.75
2023-06-17T18:36:20.266Z,3.00
2023-06-17T18:41:25.472Z,2.90
2023-06-17T18:51:38.754Z,2.60
2023-06-17T18:56:49.200Z,3.00
2023-06-17T19:01:58.055Z,2.92
2023-06-17T19:07:07.080Z,2.60
2023-06-17T19:12:17.327Z,3.00
2023-06-17T19:17:21.546Z,2.80
2023-06-17T19:22:30.298Z,3.00
2023-06-17T19:27:40.453Z,3.20
2023-06-17T19:32:44.233Z,3.00
2023-06-17T19:37:53.270Z,3.45
2023-06-17T19:43:03.435Z,3.10
2023-06-17T19:48:07.489Z,4.00
2023-06-17T19:53:16.428Z,3.50
2023-06-17T19:58:26.554Z,3.45
2023-06-17T20:03:36.177Z,4.07
2023-06-17T20:08:45.307Z,3.78
2023-06-17T20:13:55.465Z,3.88
2023-06-17T20:19:04.432Z,4.38
2023-06-17T20:24:13.283Z,4.38
2023-06-17T20:29:23.621Z,4.38
2023-06-17T20:34:32.429Z,4.43
2023-06-17T20:39:36.269Z,4.40
2023-06-17T20:44:41.432Z,4.57
2023-06-17T20:49:50.636Z,5.13
2023-06-17T20:54:59.503Z,5.05
2023-06-17T21:00:11.159Z,5.20
2023-06-17T21:05:15.913Z,4.95
2023-06-17T21:10:24.857Z,4.68
2023-06-17T21:15:34.995Z,4.50
2023-06-17T21:20:43.850Z,4.22
2023-06-17T21:25:52.670Z,4.88
2023-06-17T21:31:02.809Z,5.10
2023-06-17T21:36:11.562Z,5.07
2023-06-17T21:41:20.326Z,4.25
2023-06-17T21:46:28.313Z,4.18
2023-06-17T21:51:37.495Z,4.40
2023-06-17T21:56:41.423Z,3.25
2023-06-17T22:01:51.603Z,3.85
2023-06-17T22:06:56.950Z,3.47
2023-06-17T22:12:06.447Z,3.95
2023-06-17T22:17:11.574Z,4.13
2023-06-17T22:22:15.775Z,4.53
2023-06-17T22:27:19.530Z,3.38
2023-06-17T22:32:29.700Z,4.45
2023-06-17T22:37:38.452Z,5.75
2023-06-17T22:42:49.333Z,2.72
2023-06-17T22:53:03.030Z,3.50
2023-06-17T22:58:06.764Z,3.75
2023-06-17T23:03:16.882Z,3.65
2023-06-17T23:08:20.631Z,4.10
2023-06-17T23:13:24.451Z,3.17
2023-06-17T23:18:29.559Z,3.55
2023-06-17T23:23:38.348Z,4.68
2023-06-17T23:28:47.127Z,2.72
2023-06-17T23:33:52.178Z,2.65
2023-06-17T23:38:56.514Z,2.83
2023-06-17T23:44:05.465Z,3.20
2023-06-17T23:49:10.736Z,3.97
2023-06-17T23:54:14.631Z,3.50
2023-06-17T23:59:23.415Z,3.83
